createdAt,value
2023-10-26T00:01:12.753Z,72.55
2023-10-26T00:03:40.515Z,71.90
2023-10-26T00:06:08.311Z,72.33
2023-10-26T00:08:36.040Z,72.22
2023-10-26T00:11:04.302Z,71.78
2023-10-26T00:13:31.935Z,71.40
2023-10-26T00:15:59.574Z,70.90
2023-10-26T00:18:27.314Z,70.80
2023-10-26T00:21:00.030Z,69.93
2023-10-26T00:23:28.381Z,71.25
2023-10-26T00:25:56.026Z,70.20
2023-10-26T00:28:23.717Z,70.50
2023-10-26T00:30:51.444Z,69.00
2023-10-26T00:33:19.173Z,69.18
2023-10-26T00:35:46.911Z,71.50
2023-10-26T00:38:15.429Z,70.43
2023-10-26T00:40:44.320Z,70.57
2023-10-26T00:43:23.630Z,70.60
2023-10-26T00:45:55.550Z,70.22
2023-10-26T00:48:24.687Z,71.72
2023-10-26T00:50:53.332Z,70.05
2023-10-26T00:53:22.337Z,70.20
2023-10-26T00:55:52.566Z,69.13
2023-10-26T00:58:22.367Z,70.22
2023-10-26T01:00:51.023Z,70.13
2023-10-26T01:03:20.002Z,69.80
2023-10-26T01:05:48.162Z,69.43
2023-10-26T01:08:16.131Z,69.27
2023-10-26T01:10:43.961Z,69.07
2023-10-26T01:13:12.139Z,69.28
2023-10-26T01:15:40.131Z,68.00
2023-10-26T01:18:08.096Z,68.90
2023-10-26T01:20:36.398Z,69.17
2023-10-26T01:23:04.925Z,68.30
2023-10-26T01:25:32.820Z,68.47
2023-10-26T01:28:00.615Z,68.30
2023-10-26T01:30:28.583Z,69.22
2023-10-26T01:32:56.597Z,67.23
2023-10-26T01:35:24.467Z,67.80
2023-10-26T01:37:52.314Z,69.80
2023-10-26T01:40:20.175Z,68.35
2023-10-26T01:42:48.084Z,68.55
2023-10-26T01:45:16.023Z,69.00
2023-10-26T01:47:44.089Z,68.72
2023-10-26T01:50:12.022Z,69.30
2023-10-26T01:52:39.803Z,68.40
2023-10-26T01:55:08.217Z,68.25
2023-10-26T01:57:40.641Z,68.10
2023-10-26T02:00:10.298Z,67.68
2023-10-26T02:02:38.140Z,68.28
2023-10-26T02:05:06.451Z,67.47
2023-10-26T02:07:34.846Z,67.38
2023-10-26T02:10:05.369Z,66.63
2023-10-26T02:12:33.292Z,66.72
2023-10-26T02:15:01.117Z,68.95
2023-10-26T02:17:30.297Z,68.28
2023-10-26T02:19:58.358Z,69.03
2023-10-26T02:22:26.201Z,68.45
2023-10-26T02:24:54.041Z,68.00
2023-10-26T02:27:21.787Z,69.63
2023-10-26T02:29:49.647Z,67.40
2023-10-26T02:32:17.353Z,67.38
2023-10-26T02:34:45.384Z,68.07
2023-10-26T02:37:13.173Z,66.60
2023-10-26T02:39:41.157Z,68.35
2023-10-26T02:42:10.461Z,66.57
2023-10-26T02:44:38.436Z,66.72
2023-10-26T02:47:06.265Z,66.73
2023-10-26T02:49:34.733Z,67.10
2023-10-26T02:52:02.527Z,67.38
2023-10-26T02:54:30.407Z,66.63
2023-10-26T03:05:49.464Z,70.10
2023-10-26T03:08:17.295Z,70.38
2023-10-26T03:10:45.397Z,68.38
2023-10-26T03:13:13.304Z,68.25
2023-10-26T03:15:40.982Z,66.97
2023-10-26T03:18:08.781Z,66.75
2023-10-26T03:20:36.616Z,68.07
2023-10-26T03:23:04.477Z,66.60
2023-10-26T03:25:32.263Z,66.90
2023-10-26T03:28:00.827Z,66.53
2023-10-26T03:30:29.520Z,64.78
2023-10-26T03:32:57.406Z,66.43
2023-10-26T03:35:25.229Z,65.78
2023-10-26T03:37:53.004Z,66.38
2023-10-26T03:40:20.789Z,65.77
2023-10-26T03:42:48.509Z,65.32
2023-10-26T03:45:16.524Z,66.75
2023-10-26T03:47:44.940Z,65.50
2023-10-26T03:50:12.842Z,66.18
2023-10-26T03:52:40.663Z,65.60
2023-10-26T03:55:08.783Z,64.90
2023-10-26T03:57:36.609Z,66.18
2023-10-26T04:00:05.480Z,64.80
2023-10-26T04:02:33.467Z,64.82
2023-10-26T04:05:01.169Z,64.87
2023-10-26T04:07:28.953Z,64.80
2023-10-26T04:09:57.080Z,65.38
2023-10-26T04:12:27.202Z,64.38
2023-10-26T04:14:56.245Z,64.20
2023-10-26T04:17:24.114Z,63.27
2023-10-26T04:19:51.826Z,63.88
2023-10-26T04:22:19.632Z,64.80
2023-10-26T04:24:47.393Z,64.22
2023-10-26T04:27:15.347Z,64.25
2023-10-26T04:29:43.993Z,62.97
2023-10-26T04:32:11.748Z,62.13
2023-10-26T04:34:45.439Z,61.83
2023-10-26T04:37:13.598Z,64.70
2023-10-26T04:39:44.921Z,63.55
2023-10-26T04:42:14.370Z,62.53
2023-10-26T04:44:42.829Z,62.08
2023-10-26T04:47:11.421Z,63.72
2023-10-26T04:49:39.318Z,62.42
2023-10-26T04:52:07.139Z,62.75
2023-10-26T04:54:35.152Z,62.50
2023-10-26T04:57:03.093Z,61.67
2023-10-26T04:59:30.835Z,63.50
2023-10-26T05:01:58.581Z,63.05
2023-10-26T05:04:26.467Z,63.45
2023-10-26T05:06:54.853Z,63.17
2023-10-26T05:09:22.894Z,63.78
2023-10-26T05:11:50.847Z,64.38
2023-10-26T05:14:18.620Z,63.97
2023-10-26T05:16:46.422Z,63.13
2023-10-26T05:19:14.093Z,63.73
2023-10-26T05:21:41.897Z,62.90
2023-10-26T05:24:10.035Z,61.90
2023-10-26T05:26:37.815Z,62.17
2023-10-26T05:29:05.624Z,62.42
2023-10-26T05:31:33.383Z,62.13
2023-10-26T05:34:01.105Z,61.28
2023-10-26T05:36:29.238Z,61.58
2023-10-26T05:38:57.110Z,60.15
2023-10-26T05:41:24.903Z,61.75
2023-10-26T05:43:52.749Z,60.27
2023-10-26T05:46:20.491Z,60.63
2023-10-26T05:48:48.254Z,60.30
2023-10-26T05:51:16.858Z,59.47
2023-10-26T05:53:44.684Z,60.20
2023-10-26T05:56:12.623Z,59.50
2023-10-26T05:58:40.449Z,59.50
2023-10-26T06:01:08.203Z,59.15
2023-10-26T06:03:36.003Z,58.42
2023-10-26T06:06:04.316Z,58.30
2023-10-26T06:08:34.859Z,57.63
2023-10-26T06:11:02.874Z,57.20
2023-10-26T06:13:33.826Z,57.42
2023-10-26T06:16:01.756Z,56.53
2023-10-26T06:18:29.358Z,56.13
2023-10-26T06:21:01.550Z,56.27
2023-10-26T06:23:30.265Z,55.92
2023-10-26T06:26:03.605Z,57.00
2023-10-26T06:28:31.621Z,55.53
2023-10-26T06:31:10.573Z,54.13
2023-10-26T06:33:39.003Z,55.10
2023-10-26T06:36:07.406Z,54.35
2023-10-26T06:38:35.045Z,54.72
2023-10-26T06:41:02.845Z,52.55
2023-10-26T06:43:30.825Z,52.22
2023-10-26T06:45:59.167Z,54.00
2023-10-26T06:48:26.934Z,53.20
2023-10-26T06:51:05.602Z,54.42
2023-10-26T06:53:33.294Z,53.28
2023-10-26T06:56:00.879Z,53.53
2023-10-26T06:58:29.048Z,54.80
2023-10-26T07:00:57.034Z,53.33
2023-10-26T07:03:25.962Z,53.67
2023-10-26T07:05:53.701Z,52.38
2023-10-26T07:08:21.192Z,53.03
2023-10-26T07:10:48.751Z,53.57
2023-10-26T07:13:18.511Z,53.58
2023-10-26T07:15:46.226Z,54.55
2023-10-26T07:18:16.952Z,55.45
2023-10-26T07:20:44.624Z,54.95
2023-10-26T07:23:13.458Z,54.83
2023-10-26T07:25:41.048Z,54.75
2023-10-26T07:28:08.566Z,55.00
2023-10-26T07:30:43.509Z,53.88
2023-10-26T07:33:11.559Z,54.28
2023-10-26T07:35:42.002Z,53.87
2023-10-26T07:38:35.174Z,54.60
2023-10-26T07:40:59.104Z,56.28
2023-10-26T07:43:28.325Z,56.33
2023-10-26T07:45:56.436Z,56.28
2023-10-26T07:48:24.187Z,56.20
2023-10-26T07:50:52.591Z,55.33
2023-10-26T07:53:20.226Z,55.15
2023-10-26T07:55:47.926Z,54.75
2023-10-26T07:58:15.818Z,54.83
2023-10-26T08:00:43.672Z,54.47
2023-10-26T08:03:11.298Z,53.17
2023-10-26T08:05:38.868Z,53.95
2023-10-26T08:08:06.445Z,52.72
2023-10-26T08:10:38.393Z,53.63
2023-10-26T08:13:06.743Z,54.20
2023-10-26T08:16:09.957Z,53.78
2023-10-26T08:18:21.987Z,54.60
2023-10-26T08:20:53.060Z,54.70
2023-10-26T08:23:21.257Z,55.35
2023-10-26T08:25:49.025Z,56.13
2023-10-26T08:28:19.816Z,55.95
2023-10-26T08:30:47.349Z,57.08
2023-10-26T08:33:16.534Z,56.67
2023-10-26T08:35:51.197Z,57.03
2023-10-26T08:38:18.844Z,58.00
2023-10-26T08:40:53.168Z,57.60
2023-10-26T08:43:21.822Z,59.60
2023-10-26T08:45:49.988Z,59.38
2023-10-26T08:48:21.522Z,60.45
2023-10-26T08:50:50.031Z,61.97
2023-10-26T08:53:17.601Z,60.00
2023-10-26T08:55:45.305Z,60.47
2023-10-26T08:58:12.967Z,59.72
2023-10-26T09:00:42.154Z,59.03
2023-10-26T09:03:09.885Z,58.97
2023-10-26T09:05:57.733Z,59.40
2023-10-26T09:08:28.030Z,61.47
2023-10-26T09:10:56.044Z,59.63
2023-10-26T09:13:28.193Z,59.70
2023-10-26T09:15:59.621Z,60.07
2023-10-26T09:18:28.340Z,60.53
2023-10-26T09:21:07.036Z,60.92
2023-10-26T09:23:36.810Z,61.35
2023-10-26T09:26:09.573Z,61.30
2023-10-26T09:28:57.542Z,61.50
2023-10-26T09:31:26.426Z,60.80
2023-10-26T09:33:54.162Z,61.90
2023-10-26T09:36:21.993Z,61.03
2023-10-26T09:38:50.610Z,60.72
2023-10-26T09:41:22.660Z,60.10
2023-10-26T09:43:50.367Z,58.30
2023-10-26T09:46:21.861Z,58.42
2023-10-26T09:48:50.485Z,57.05
2023-10-26T09:51:21.212Z,56.30
2023-10-26T09:53:49.860Z,55.27
2023-10-26T09:56:27.374Z,54.45
2023-10-26T09:58:55.170Z,53.92
2023-10-26T10:01:39.366Z,51.20
2023-10-26T10:04:11.495Z,52.88
2023-10-26T10:06:53.470Z,50.10
2023-10-26T10:09:22.008Z,50.35
2023-10-26T10:12:40.371Z,48.70
2023-10-26T10:15:36.318Z,49.88
2023-10-26T10:18:04.840Z,49.97
2023-10-26T10:20:34.778Z,48.77
2023-10-26T10:23:04.483Z,48.63
2023-10-26T10:25:50.773Z,48.80
2023-10-26T10:28:20.265Z,49.42
2023-10-26T10:30:57.426Z,48.55
2023-10-26T10:33:29.939Z,48.03
2023-10-26T10:36:03.073Z,47.55
2023-10-26T10:38:31.966Z,47.30
2023-10-26T10:40:59.812Z,46.22
2023-10-26T10:43:39.055Z,46.40
2023-10-26T10:46:25.199Z,45.20
2023-10-26T10:49:09.887Z,44.50
2023-10-26T10:51:42.626Z,45.55
2023-10-26T10:54:29.414Z,43.70
2023-10-26T10:57:05.417Z,42.70
2023-10-26T10:59:33.163Z,42.10
2023-10-26T11:02:14.655Z,39.63
2023-10-26T11:05:12.622Z,39.83
2023-10-26T11:07:40.866Z,40.33
2023-10-26T11:10:09.413Z,38.97
2023-10-26T11:12:37.286Z,38.17
2023-10-26T11:15:05.726Z,37.63
2023-10-26T11:17:35.658Z,38.30
2023-10-26T11:20:04.694Z,37.90
2023-10-26T11:22:33.088Z,39.15
2023-10-26T11:25:01.464Z,38.50
2023-10-26T11:27:30.719Z,37.33
2023-10-26T11:30:09.743Z,38.42
2023-10-26T11:32:37.530Z,40.33
2023-10-26T11:35:13.081Z,39.83
2023-10-26T11:37:44.952Z,41.03
2023-10-26T11:40:14.754Z,39.85
2023-10-26T11:42:58.342Z,39.20
2023-10-26T11:45:27.421Z,40.38
2023-10-26T11:48:02.471Z,40.33
2023-10-26T11:50:38.043Z,40.73
2023-10-26T11:53:06.978Z,40.25
2023-10-26T11:55:35.263Z,41.28
2023-10-26T11:58:07.284Z,42.38
2023-10-26T12:00:35.263Z,42.70
2023-10-26T12:03:03.099Z,43.43
2023-10-26T12:05:31.636Z,43.38
2023-10-26T12:07:59.458Z,42.67
2023-10-26T12:10:27.835Z,42.95
2023-10-26T12:12:58.893Z,43.13
2023-10-26T12:15:27.198Z,43.60
2023-10-26T12:17:54.835Z,44.17
2023-10-26T12:20:22.563Z,45.40
2023-10-26T12:22:53.647Z,46.10
2023-10-26T12:25:21.496Z,46.25
2023-10-26T12:28:19.796Z,46.57
2023-10-26T12:30:36.811Z,47.38
2023-10-26T12:33:04.549Z,47.63
2023-10-26T12:35:32.282Z,46.42
2023-10-26T12:37:59.856Z,46.30
2023-10-26T12:40:27.474Z,47.07
2023-10-26T12:42:55.148Z,46.90
2023-10-26T12:45:22.957Z,48.53
2023-10-26T12:47:50.510Z,47.85
2023-10-26T12:50:18.223Z,48.25
2023-10-26T12:52:45.778Z,47.83
2023-10-26T12:55:13.306Z,47.55
2023-10-26T12:57:40.930Z,49.17
2023-10-26T13:00:09.373Z,48.70
2023-10-26T13:02:37.619Z,48.95
2023-10-26T13:05:05.511Z,49.50
2023-10-26T13:07:33.049Z,50.25
2023-10-26T13:10:00.663Z,50.83
2023-10-26T13:12:28.354Z,50.75
2023-10-26T13:14:56.785Z,50.88
2023-10-26T13:17:28.633Z,51.57
2023-10-26T13:19:56.438Z,51.65
2023-10-26T13:22:24.496Z,52.00
2023-10-26T13:24:52.383Z,51.15
2023-10-26T13:27:20.192Z,50.80
2023-10-26T13:29:48.016Z,50.93
2023-10-26T13:32:15.831Z,51.88
2023-10-26T13:34:43.955Z,52.25
2023-10-26T13:37:11.898Z,51.95
2023-10-26T13:39:39.757Z,52.45
2023-10-26T13:42:07.759Z,52.63
2023-10-26T13:44:35.626Z,53.05
2023-10-26T13:47:03.604Z,54.40
2023-10-26T13:49:31.417Z,55.08
2023-10-26T13:51:59.280Z,54.70
2023-10-26T13:54:27.137Z,55.10
2023-10-26T13:56:55.707Z,54.70
2023-10-26T13:59:24.706Z,55.90
2023-10-26T14:01:52.535Z,55.15
2023-10-26T14:04:20.437Z,56.25
2023-10-26T14:06:48.258Z,55.93
2023-10-26T14:09:16.873Z,55.85
2023-10-26T14:11:44.796Z,56.50
2023-10-26T14:14:13.554Z,55.40
2023-10-26T14:16:41.643Z,55.85
2023-10-26T14:19:10.243Z,55.17
2023-10-26T14:21:37.966Z,55.45
2023-10-26T14:24:07.578Z,55.85
2023-10-26T14:26:35.144Z,55.42
2023-10-26T14:29:03.058Z,56.15
2023-10-26T14:31:30.741Z,56.00
2023-10-26T14:33:58.419Z,56.00
2023-10-26T14:36:26.139Z,56.45
2023-10-26T14:38:53.893Z,55.72
2023-10-26T14:41:21.922Z,56.05
2023-10-26T14:43:51.113Z,56.30
2023-10-26T14:46:18.689Z,56.20
2023-10-26T14:48:46.544Z,57.88
2023-10-26T14:51:14.295Z,56.17
2023-10-26T14:53:42.004Z,56.75
2023-10-26T14:56:09.620Z,57.43
2023-10-26T14:58:37.264Z,57.72
2023-10-26T15:01:11.669Z,58.30
2023-10-26T15:03:39.979Z,57.88
2023-10-26T15:06:07.762Z,58.20
2023-10-26T15:08:35.572Z,58.93
2023-10-26T15:11:23.696Z,58.80
2023-10-26T15:13:51.025Z,61.10
2023-10-26T15:16:18.705Z,59.78
2023-10-26T15:18:46.584Z,59.75
2023-10-26T15:21:14.472Z,59.87
2023-10-26T15:23:42.307Z,60.85
2023-10-26T15:26:12.158Z,60.22
2023-10-26T15:28:39.980Z,60.08
2023-10-26T15:31:07.677Z,59.97
2023-10-26T15:33:35.396Z,60.17
2023-10-26T15:36:05.357Z,60.92
2023-10-26T15:38:34.902Z,61.83
2023-10-26T15:41:07.056Z,60.65
2023-10-26T15:43:35.804Z,61.00
2023-10-26T15:46:04.598Z,61.40
2023-10-26T15:49:31.711Z,61.13
2023-10-26T15:51:21.230Z,62.75
2023-10-26T15:53:48.917Z,61.80
2023-10-26T15:56:16.512Z,61.80
2023-10-26T15:58:44.341Z,61.73
2023-10-26T16:01:12.442Z,61.28
2023-10-26T16:03:40.299Z,61.38
2023-10-26T16:06:09.755Z,61.33
2023-10-26T16:08:43.257Z,61.30
2023-10-26T16:11:14.637Z,62.07
2023-10-26T16:13:46.853Z,61.88
2023-10-26T16:16:14.921Z,62.35
2023-10-26T16:18:47.463Z,61.28
2023-10-26T16:21:17.177Z,61.92
2023-10-26T16:23:44.872Z,62.10
2023-10-26T16:26:12.596Z,61.72
2023-10-26T16:28:40.139Z,61.40
2023-10-26T16:31:07.839Z,61.20
2023-10-26T16:33:38.103Z,61.78
2023-10-26T16:36:06.476Z,60.83
2023-10-26T16:38:34.307Z,61.28
2023-10-26T16:41:01.931Z,60.83
2023-10-26T16:43:29.517Z,60.28
2023-10-26T16:45:57.911Z,60.03
2023-10-26T16:48:27.877Z,60.70
2023-10-26T16:50:56.683Z,61.10
2023-10-26T16:55:59.804Z,61.83
2023-10-26T16:58:27.605Z,62.28
2023-10-26T17:00:57.643Z,62.27
2023-10-26T17:03:27.621Z,62.97
2023-10-26T17:05:55.174Z,63.35
2023-10-26T17:08:22.794Z,63.88
2023-10-26T17:10:51.589Z,63.60
2023-10-26T17:13:19.793Z,64.00
2023-10-26T17:15:50.980Z,64.13
2023-10-26T17:18:21.429Z,65.35
2023-10-26T17:20:52.608Z,64.82
2023-10-26T17:23:20.157Z,65.63
2023-10-26T17:25:47.788Z,64.90
2023-10-26T17:28:15.604Z,64.47
2023-10-26T17:30:43.195Z,64.93
2023-10-26T17:33:14.498Z,65.18
2023-10-26T17:35:49.247Z,65.28
2023-10-26T17:38:17.002Z,65.70
2023-10-26T17:40:46.598Z,66.00
2023-10-26T17:43:15.489Z,66.50
2023-10-26T17:45:43.582Z,66.22
2023-10-26T17:48:11.988Z,66.05
2023-10-26T17:50:43.739Z,66.70
2023-10-26T17:53:11.541Z,66.50
2023-10-26T17:55:39.203Z,67.75
2023-10-26T17:58:06.828Z,67.38
2023-10-26T18:00:34.419Z,66.93
2023-10-26T18:03:02.162Z,66.53
2023-10-26T18:05:30.021Z,67.82
2023-10-26T18:07:57.809Z,67.85
2023-10-26T18:10:25.357Z,67.45
2023-10-26T18:12:53.950Z,67.68
2023-10-26T18:15:21.500Z,66.83
2023-10-26T18:17:49.208Z,66.80
2023-10-26T18:20:16.835Z,67.25
2023-10-26T18:22:44.781Z,65.80
2023-10-26T18:25:12.454Z,66.47
2023-10-26T18:27:40.581Z,66.40
2023-10-26T18:30:08.896Z,65.45
2023-10-26T18:32:36.479Z,66.47
2023-10-26T18:35:05.370Z,65.65
2023-10-26T18:37:33.314Z,65.88
2023-10-26T18:40:01.220Z,65.07
2023-10-26T18:42:29.052Z,64.93
2023-10-26T18:44:56.772Z,65.55
2023-10-26T18:47:24.525Z,64.72
2023-10-26T18:49:52.251Z,64.93
2023-10-26T18:52:19.807Z,64.43
2023-10-26T18:54:47.443Z,64.93
2023-10-26T18:57:15.004Z,65.43
2023-10-26T18:59:43.775Z,64.47
2023-10-26T19:02:11.800Z,63.95
2023-10-26T19:04:39.468Z,64.27
2023-10-26T19:07:08.127Z,64.40
2023-10-26T19:09:36.453Z,67.50
2023-10-26T19:12:04.799Z,64.45
2023-10-26T19:14:33.191Z,64.00
2023-10-26T19:17:01.071Z,62.80
2023-10-26T19:19:28.761Z,62.25
2023-10-26T19:21:56.415Z,63.10
2023-10-26T19:24:24.598Z,62.08
2023-10-26T19:26:52.444Z,62.28
2023-10-26T19:29:19.971Z,62.37
2023-10-26T19:31:47.603Z,61.65
2023-10-26T19:34:15.247Z,62.85
2023-10-26T19:36:42.864Z,62.75
2023-10-26T19:39:10.433Z,62.97
2023-10-26T19:41:37.997Z,63.43
2023-10-26T19:44:05.707Z,63.20
2023-10-26T19:46:34.016Z,63.78
2023-10-26T19:49:02.058Z,63.55
2023-10-26T19:51:29.590Z,63.80
2023-10-26T19:53:57.353Z,63.20
2023-10-26T19:56:24.828Z,63.38
2023-10-26T19:58:52.442Z,65.53
2023-10-26T20:01:20.219Z,63.13
2023-10-26T20:03:48.010Z,63.75
2023-10-26T20:06:15.732Z,64.03
2023-10-26T20:08:43.521Z,64.00
2023-10-26T20:11:11.335Z,64.70
2023-10-26T20:13:38.980Z,63.78
2023-10-26T20:16:06.797Z,63.65
2023-10-26T20:18:46.217Z,63.70
2023-10-26T20:21:13.954Z,63.70
2023-10-26T20:23:41.567Z,63.97
2023-10-26T20:26:10.483Z,63.67
2023-10-26T20:28:38.225Z,63.97
2023-10-26T20:31:05.850Z,64.50
2023-10-26T20:33:33.532Z,64.95
2023-10-26T20:36:01.450Z,65.10
2023-10-26T20:38:29.101Z,64.80
2023-10-26T20:40:56.876Z,64.70
2023-10-26T20:43:24.434Z,64.90
2023-10-26T20:45:59.423Z,64.30
2023-10-26T20:48:27.390Z,64.80
2023-10-26T20:50:57.188Z,63.97
2023-10-26T20:53:29.504Z,64.70
2023-10-26T20:56:01.975Z,64.80
2023-10-26T20:58:30.628Z,65.20
2023-10-26T21:00:58.406Z,64.95
2023-10-26T21:03:26.327Z,65.13
2023-10-26T21:05:54.571Z,65.50
2023-10-26T21:08:23.346Z,64.47
2023-10-26T21:10:51.006Z,64.82
2023-10-26T21:13:21.339Z,64.82
2023-10-26T21:15:49.257Z,64.82
2023-10-26T21:18:16.818Z,65.18
2023-10-26T21:20:44.563Z,64.83
2023-10-26T21:23:12.114Z,64.28
2023-10-26T21:25:39.932Z,64.97
2023-10-26T21:28:08.562Z,63.63
2023-10-26T21:30:37.147Z,64.20
2023-10-26T21:33:05.528Z,64.10
2023-10-26T21:35:37.442Z,63.83
2023-10-26T21:38:05.971Z,64.05
2023-10-26T21:40:38.416Z,63.50
2023-10-26T21:43:07.125Z,63.15
2023-10-26T21:45:38.250Z,62.90
2023-10-26T21:48:06.174Z,62.95
2023-10-26T21:50:37.053Z,63.63
2023-10-26T21:53:04.666Z,62.75
2023-10-26T21:55:32.958Z,63.05
2023-10-26T21:58:01.217Z,62.40
2023-10-26T22:00:29.663Z,62.30
2023-10-26T22:02:57.680Z,63.95
2023-10-26T22:05:25.388Z,62.85
2023-10-26T22:07:52.910Z,63.20
2023-10-26T22:10:20.874Z,62.83
2023-10-26T22:12:49.055Z,63.03
2023-10-26T22:15:16.738Z,63.45
2023-10-26T22:17:44.461Z,63.00
2023-10-26T22:20:12.933Z,63.38
2023-10-26T22:22:40.557Z,63.57
2023-10-26T22:25:08.282Z,62.97
2023-10-26T22:27:36.196Z,63.75
2023-10-26T22:30:04.229Z,63.65
2023-10-26T22:32:32.006Z,63.28
2023-10-26T22:34:59.685Z,63.93
2023-10-26T22:37:27.422Z,62.92
2023-10-26T22:39:55.238Z,63.47
2023-10-26T22:42:22.850Z,63.22
2023-10-26T22:44:51.019Z,63.47
2023-10-26T22:47:18.533Z,63.40
2023-10-26T22:49:46.479Z,63.03
2023-10-26T22:52:14.307Z,64.43
2023-10-26T22:54:41.855Z,64.25
2023-10-26T22:57:09.673Z,64.25
2023-10-26T22:59:37.228Z,64.13
2023-10-26T23:02:04.813Z,64.55
2023-10-26T23:04:32.402Z,65.40
2023-10-26T23:07:01.427Z,64.45
2023-10-26T23:09:28.933Z,64.25
2023-10-26T23:11:56.419Z,63.80
2023-10-26T23:14:25.769Z,63.80
2023-10-26T23:16:53.286Z,64.60
2023-10-26T23:19:20.932Z,64.05
2023-10-26T23:21:48.944Z,64.55
2023-10-26T23:24:16.442Z,64.57
2023-10-26T23:26:44.192Z,64.82
2023-10-26T23:29:11.736Z,65.55
2023-10-26T23:31:39.312Z,64.82
2023-10-26T23:34:06.925Z,64.25
2023-10-26T23:36:34.588Z,63.50
2023-10-26T23:39:02.268Z,64.13
2023-10-26T23:41:30.330Z,65.00
2023-10-26T23:43:57.882Z,64.40
2023-10-26T23:46:26.711Z,64.25
2023-10-26T23:48:54.309Z,64.23
2023-10-26T23:51:22.618Z,64.00
2023-10-26T23:53:50.129Z,64.22
2023-10-26T23:56:17.679Z,63.78
2023-10-26T23:58:45.247Z,64.05
